Time;durP1;ratioP1;P1;durP2;ratioP2;P2;SDS_P1;SDS_P2;PMS_P1;PMS_P2;Temp;Humidity;BMP_temperature;BMP_pressure;BME280_temperature;BME280_humidity;BME280_pressure;Samples;Min_cycle;Max_cycle;Signal;HPM_P1;HPM_P2
2023/11/19 00:00:47;;;;;;;33.03;18.63;;;;;;;;;;775702;179;920070;-67
2023/11/19 00:03:13;;;;;;;35.10;20.90;;;;;;;;;;774973;180;919497;-60
2023/11/19 00:05:38;;;;;;;47.70;25.33;;;;;;;;;;772396;179;919059;-67
2023/11/19 00:08:05;;;;;;;34.13;22.27;;;;;;;;;;775740;179;919251;-67
2023/11/19 00:10:30;;;;;;;38.23;22.73;;;;;;;;;;774863;179;920081;-60
2023/11/19 00:12:56;;;;;;;44.03;24.87;;;;;;;;;;780650;179;917324;-66
2023/11/19 00:15:24;;;;;;;44.73;22.90;;;;;;;;;;788095;178;919161;-61
2023/11/19 00:17:48;;;;;;;38.30;22.90;;;;;;;;;;781837;178;918303;-62
2023/11/19 00:20:14;;;;;;;42.87;23.80;;;;;;;;;;782906;178;921761;-67
2023/11/19 00:22:41;;;;;;;36.00;19.47;;;;;;;;;;782216;176;918244;-61
2023/11/19 00:25:06;;;;;;;36.85;20.55;;;;;;;;;;777272;178;919280;-61
2023/11/19 00:27:32;;;;;;;40.80;23.38;;;;;;;;;;771188;179;916513;-66
2023/11/19 00:29:58;;;;;;;37.00;21.90;;;;;;;;;;782412;178;918699;-67
2023/11/19 00:32:24;;;;;;;33.13;20.10;;;;;;;;;;773237;178;816887;-67
2023/11/19 00:34:50;;;;;;;41.83;21.67;;;;;;;;;;775445;178;918860;-61
2023/11/19 00:37:16;;;;;;;37.00;22.13;;;;;;;;;;774640;179;919817;-66
2023/11/19 00:39:42;;;;;;;37.70;20.67;;;;;;;;;;781163;179;816674;-66
2023/11/19 00:42:07;;;;;;;35.93;19.17;;;;;;;;;;770971;179;921603;-61
2023/11/19 00:44:33;;;;;;;36.93;21.17;;;;;;;;;;772843;179;919509;-66
2023/11/19 00:47:00;;;;;;;38.97;20.43;;;;;;;;;;782951;178;915799;-61
2023/11/19 00:49:25;;;;;;;33.93;18.50;;;;;;;;;;772826;179;941918;-67
2023/11/19 00:51:51;;;;;;;38.50;20.90;;;;;;;;;;778239;179;907686;-61
2023/11/19 00:54:17;;;;;;;40.37;21.47;;;;;;;;;;785020;178;920391;-67
2023/11/19 00:56:42;;;;;;;35.57;22.50;;;;;;;;;;779622;179;918148;-65
2023/11/19 00:59:08;;;;;;;36.50;20.77;;;;;;;;;;776631;178;918953;-68
2023/11/19 01:01:34;;;;;;;38.63;21.40;;;;;;;;;;774944;179;917817;-67
2023/11/19 01:04:00;;;;;;;29.97;18.10;;;;;;;;;;776496;179;919227;-67
2023/11/19 01:06:29;;;;;;;34.75;21.12;;;;;;;;;;776216;179;817977;-67
2023/11/19 01:08:55;;;;;;;34.57;20.87;;;;;;;;;;776084;180;920546;-61
2023/11/19 01:11:21;;;;;;;42.22;21.58;;;;;;;;;;777290;179;919846;-61
2023/11/19 01:13:46;;;;;;;40.43;22.47;;;;;;;;;;778960;179;918480;-61
2023/11/19 01:16:12;;;;;;;32.67;19.55;;;;;;;;;;778863;179;919685;-67
2023/11/19 01:18:38;;;;;;;37.73;20.60;;;;;;;;;;785051;179;816804;-66
2023/11/19 01:21:04;;;;;;;36.07;22.50;;;;;;;;;;776215;179;816372;-67
2023/11/19 01:23:30;;;;;;;35.83;21.43;;;;;;;;;;780574;179;917770;-62
2023/11/19 01:25:56;;;;;;;35.00;21.60;;;;;;;;;;778052;178;920965;-67
2023/11/19 01:28:22;;;;;;;37.80;20.13;;;;;;;;;;781129;178;817720;-67
2023/11/19 01:30:47;;;;;;;31.40;19.30;;;;;;;;;;774607;178;919341;-67
2023/11/19 01:33:13;;;;;;;34.20;19.87;;;;;;;;;;781706;177;919587;-62
2023/11/19 01:35:39;;;;;;;35.10;20.77;;;;;;;;;;785914;178;919794;-61
2023/11/19 01:38:05;;;;;;;44.80;21.37;;;;;;;;;;777388;177;919590;-67
2023/11/19 01:40:31;;;;;;;33.67;20.52;;;;;;;;;;775996;178;919127;-62
2023/11/19 01:42:57;;;;;;;38.77;20.70;;;;;;;;;;770408;179;922492;-62
2023/11/19 01:45:23;;;;;;;36.93;20.17;;;;;;;;;;775920;179;919018;-66
2023/11/19 01:47:48;;;;;;;32.13;18.30;;;;;;;;;;772124;178;919757;-68
2023/11/19 01:50:14;;;;;;;33.80;18.50;;;;;;;;;;781469;179;886027;-67
2023/11/19 01:52:41;;;;;;;35.42;17.35;;;;;;;;;;776643;177;714171;-68
2023/11/19 01:55:07;;;;;;;41.83;20.80;;;;;;;;;;773562;179;814307;-69
2023/11/19 01:57:32;;;;;;;42.53;19.70;;;;;;;;;;770653;179;817450;-62
2023/11/19 01:59:58;;;;;;;35.87;20.40;;;;;;;;;;775399;179;913871;-62
2023/11/19 02:02:24;;;;;;;39.37;20.77;;;;;;;;;;777039;179;915462;-68
2023/11/19 02:04:50;;;;;;;53.20;21.13;;;;;;;;;;772828;179;919524;-62
2023/11/19 02:07:17;;;;;;;57.97;22.00;;;;;;;;;;782160;179;917338;-62
2023/11/19 02:09:42;;;;;;;48.25;22.10;;;;;;;;;;777871;179;824557;-68
2023/11/19 02:12:10;;;;;;;53.90;22.70;;;;;;;;;;774606;179;919709;-67
2023/11/19 02:14:34;;;;;;;38.63;20.73;;;;;;;;;;777549;179;918536;-67
2023/11/19 02:17:00;;;;;;;40.53;20.93;;;;;;;;;;765687;180;921768;-62
2023/11/19 02:19:26;;;;;;;46.07;23.30;;;;;;;;;;776669;179;816593;-67
2023/11/19 02:21:52;;;;;;;56.67;20.50;;;;;;;;;;768963;179;916349;-62
2023/11/19 02:24:18;;;;;;;41.93;19.87;;;;;;;;;;780562;176;918404;-68
2023/11/19 02:26:45;;;;;;;46.60;19.80;;;;;;;;;;770946;179;1021438;-67
2023/11/19 02:29:11;;;;;;;51.17;21.97;;;;;;;;;;776796;175;1124191;-68
2023/11/19 02:31:37;;;;;;;48.37;22.87;;;;;;;;;;783888;179;920315;-62
2023/11/19 02:34:03;;;;;;;45.77;22.10;;;;;;;;;;777107;179;920000;-67
2023/11/19 02:36:29;;;;;;;57.60;21.40;;;;;;;;;;775788;177;948507;-62
2023/11/19 02:38:55;;;;;;;58.15;21.80;;;;;;;;;;779044;178;921059;-63
2023/11/19 02:41:21;;;;;;;61.90;22.00;;;;;;;;;;769120;180;919887;-68
2023/11/19 02:43:48;;;;;;;73.13;20.97;;;;;;;;;;773915;178;918383;-68
2023/11/19 02:46:12;;;;;;;80.10;23.80;;;;;;;;;;782944;178;917604;-68
2023/11/19 02:48:38;;;;;;;61.83;21.70;;;;;;;;;;778721;178;816010;-68
2023/11/19 02:51:04;;;;;;;44.50;19.70;;;;;;;;;;777047;178;919004;-68
2023/11/19 02:53:30;;;;;;;38.40;18.90;;;;;;;;;;783467;179;814803;-64
2023/11/19 02:56:02;;;;;;;37.67;19.67;;;;;;;;;;779450;179;858515;-63
2023/11/19 02:58:24;;;;;;;41.23;20.63;;;;;;;;;;774301;179;820093;-63
2023/11/19 03:00:54;;;;;;;41.70;20.83;;;;;;;;;;775738;179;928648;-63
2023/11/19 03:03:20;;;;;;;35.37;19.50;;;;;;;;;;783345;176;918808;-63
2023/11/19 03:05:44;;;;;;;37.00;18.80;;;;;;;;;;777252;180;918373;-63
2023/11/19 03:08:09;;;;;;;42.20;20.57;;;;;;;;;;776502;176;918317;-62
2023/11/19 03:10:35;;;;;;;40.50;20.50;;;;;;;;;;777546;179;817785;-67
2023/11/19 03:13:02;;;;;;;50.10;23.47;;;;;;;;;;779874;179;916910;-67
2023/11/19 03:15:27;;;;;;;41.50;20.40;;;;;;;;;;775605;179;915255;-68
2023/11/19 03:17:53;;;;;;;56.70;27.52;;;;;;;;;;777859;179;916040;-67
2023/11/19 03:20:18;;;;;;;47.90;23.80;;;;;;;;;;786332;179;919435;-63
2023/11/19 03:22:44;;;;;;;57.20;29.37;;;;;;;;;;774827;179;919075;-64
2023/11/19 03:25:10;;;;;;;41.60;21.07;;;;;;;;;;770991;179;919383;-63
2023/11/19 03:27:38;;;;;;;35.08;19.48;;;;;;;;;;776967;179;920023;-62
2023/11/19 03:30:05;;;;;;;39.13;20.83;;;;;;;;;;772854;179;867314;-62
2023/11/19 03:32:31;;;;;;;37.10;19.53;;;;;;;;;;774828;179;919265;-63
2023/11/19 03:34:56;;;;;;;38.10;20.97;;;;;;;;;;776799;179;917552;-63
2023/11/19 03:37:22;;;;;;;42.53;20.93;;;;;;;;;;773213;179;919555;-62
2023/11/19 03:39:48;;;;;;;37.45;20.62;;;;;;;;;;781054;179;917742;-62
2023/11/19 03:42:14;;;;;;;37.10;19.60;;;;;;;;;;773145;179;901559;-67
2023/11/19 03:44:40;;;;;;;36.37;18.90;;;;;;;;;;772205;180;919733;-62
2023/11/19 03:47:06;;;;;;;34.73;19.83;;;;;;;;;;777950;176;919438;-63
2023/11/19 03:49:32;;;;;;;38.57;19.93;;;;;;;;;;774422;177;920531;-67
2023/11/19 03:51:58;;;;;;;36.65;20.30;;;;;;;;;;782274;178;812904;-63
2023/11/19 03:54:24;;;;;;;31.40;18.20;;;;;;;;;;777623;178;919617;-67
2023/11/19 03:56:49;;;;;;;30.93;17.93;;;;;;;;;;781831;178;919085;-62
2023/11/19 03:59:15;;;;;;;30.60;18.80;;;;;;;;;;775196;178;917363;-62
2023/11/19 04:01:41;;;;;;;30.40;16.43;;;;;;;;;;774737;180;896909;-62
2023/11/19 04:04:07;;;;;;;32.03;16.83;;;;;;;;;;776108;178;919502;-67
2023/11/19 04:06:33;;;;;;;33.53;17.47;;;;;;;;;;776150;178;917208;-62
2023/11/19 04:08:59;;;;;;;35.47;19.50;;;;;;;;;;780661;179;918403;-67
2023/11/19 04:11:24;;;;;;;32.57;17.93;;;;;;;;;;780286;179;918721;-62
2023/11/19 04:13:50;;;;;;;32.23;17.30;;;;;;;;;;780841;177;915485;-67
2023/11/19 04:16:16;;;;;;;29.60;17.93;;;;;;;;;;782314;179;772965;-63
2023/11/19 04:18:42;;;;;;;26.90;14.40;;;;;;;;;;773864;179;919396;-63
2023/11/19 04:21:08;;;;;;;32.73;15.40;;;;;;;;;;768431;179;919069;-67
2023/11/19 04:23:34;;;;;;;31.93;15.83;;;;;;;;;;778379;177;918962;-67
2023/11/19 04:25:59;;;;;;;30.20;16.90;;;;;;;;;;778838;178;815402;-63
2023/11/19 04:28:26;;;;;;;31.27;16.60;;;;;;;;;;770672;179;922837;-62
2023/11/19 04:30:51;;;;;;;28.55;16.40;;;;;;;;;;777454;178;914134;-68
2023/11/19 04:33:17;;;;;;;27.63;16.17;;;;;;;;;;785512;178;846658;-67
2023/11/19 04:35:43;;;;;;;32.53;17.00;;;;;;;;;;777189;179;920395;-67
2023/11/19 04:38:09;;;;;;;39.30;17.70;;;;;;;;;;773046;179;909170;-62
2023/11/19 04:40:34;;;;;;;29.07;17.00;;;;;;;;;;781637;179;817010;-63
2023/11/19 04:43:00;;;;;;;32.20;16.73;;;;;;;;;;782156;175;816915;-67
2023/11/19 04:45:26;;;;;;;32.22;17.62;;;;;;;;;;775087;179;919746;-63
2023/11/19 04:47:52;;;;;;;33.27;18.70;;;;;;;;;;778777;179;876351;-63
2023/11/19 04:50:18;;;;;;;30.83;18.47;;;;;;;;;;778711;179;918495;-63
2023/11/19 04:52:45;;;;;;;30.10;15.67;;;;;;;;;;773190;178;919402;-67
2023/11/19 04:55:11;;;;;;;30.37;17.30;;;;;;;;;;775190;179;917847;-67
2023/11/19 04:57:36;;;;;;;34.57;16.47;;;;;;;;;;780657;179;913496;-62
2023/11/19 05:00:04;;;;;;;31.73;16.70;;;;;;;;;;774793;178;920197;-64
2023/11/19 05:02:28;;;;;;;24.20;15.10;;;;;;;;;;781186;178;878251;-66
2023/11/19 05:04:54;;;;;;;26.87;15.60;;;;;;;;;;785463;178;919080;-63
2023/11/19 05:07:20;;;;;;;25.70;13.67;;;;;;;;;;776835;176;823359;-66
2023/11/19 05:09:46;;;;;;;27.50;16.30;;;;;;;;;;780198;178;920968;-67
2023/11/19 05:12:12;;;;;;;26.40;15.30;;;;;;;;;;779110;176;918618;-67
2023/11/19 05:14:37;;;;;;;23.00;15.20;;;;;;;;;;777475;178;918551;-67
2023/11/19 05:17:03;;;;;;;28.97;15.67;;;;;;;;;;774616;178;919551;-63
2023/11/19 05:19:29;;;;;;;30.40;15.13;;;;;;;;;;777045;179;916610;-63
2023/11/19 05:21:55;;;;;;;24.53;14.40;;;;;;;;;;771541;179;946632;-67
2023/11/19 05:24:21;;;;;;;23.30;13.70;;;;;;;;;;780257;178;919095;-63
2023/11/19 05:26:47;;;;;;;29.60;16.17;;;;;;;;;;778954;179;915238;-63
2023/11/19 05:29:12;;;;;;;25.43;12.83;;;;;;;;;;783155;177;915801;-66
2023/11/19 05:31:38;;;;;;;26.63;15.27;;;;;;;;;;777583;179;919300;-63
2023/11/19 05:34:04;;;;;;;28.70;17.17;;;;;;;;;;777453;179;816331;-69
2023/11/19 05:36:30;;;;;;;25.07;15.00;;;;;;;;;;784384;178;921411;-62
2023/11/19 05:38:56;;;;;;;33.37;14.80;;;;;;;;;;777693;179;919101;-67
2023/11/19 05:41:22;;;;;;;28.30;14.90;;;;;;;;;;780949;179;825955;-63
2023/11/19 05:43:48;;;;;;;25.60;12.95;;;;;;;;;;780979;177;915534;-64
2023/11/19 05:46:14;;;;;;;21.80;12.90;;;;;;;;;;777383;179;906047;-66
2023/11/19 05:48:40;;;;;;;26.12;14.68;;;;;;;;;;777475;178;912548;-63
2023/11/19 05:51:05;;;;;;;25.70;15.30;;;;;;;;;;775056;179;915410;-66
2023/11/19 05:53:31;;;;;;;25.43;13.97;;;;;;;;;;785412;179;915280;-66
2023/11/19 05:55:57;;;;;;;25.50;14.87;;;;;;;;;;778825;179;925010;-63
2023/11/19 05:58:26;;;;;;;21.40;13.70;;;;;;;;;;772013;179;916426;-66
2023/11/19 06:00:51;;;;;;;20.70;11.80;;;;;;;;;;780365;179;920432;-66
2023/11/19 06:03:17;;;;;;;23.40;13.55;;;;;;;;;;773896;179;917769;-66
2023/11/19 06:05:43;;;;;;;25.87;13.17;;;;;;;;;;771931;179;915991;-63
2023/11/19 06:08:09;;;;;;;19.10;12.85;;;;;;;;;;777334;179;817705;-62
2023/11/19 06:10:35;;;;;;;21.60;12.83;;;;;;;;;;773399;178;922688;-63
2023/11/19 06:13:04;;;;;;;23.43;12.70;;;;;;;;;;782416;177;918587;-67
2023/11/19 06:15:27;;;;;;;21.03;12.70;;;;;;;;;;773352;178;930485;-63
2023/11/19 06:17:52;;;;;;;13.63;8.17;;;;;;;;;;782233;178;812928;-63
2023/11/19 06:20:19;;;;;;;13.83;8.93;;;;;;;;;;780666;178;714746;-63
2023/11/19 06:22:45;;;;;;;13.10;8.00;;;;;;;;;;773685;178;919702;-64
2023/11/19 06:25:11;;;;;;;12.45;7.37;;;;;;;;;;779886;178;916957;-67
2023/11/19 06:27:37;;;;;;;14.10;8.37;;;;;;;;;;776407;179;919136;-66
2023/11/19 06:30:02;;;;;;;14.23;9.57;;;;;;;;;;777166;179;920376;-63
2023/11/19 06:32:28;;;;;;;15.70;8.80;;;;;;;;;;779873;178;814986;-62
2023/11/19 06:34:54;;;;;;;12.97;9.13;;;;;;;;;;777736;179;919213;-63
2023/11/19 06:37:20;;;;;;;14.60;9.57;;;;;;;;;;776089;178;917779;-64
2023/11/19 06:39:46;;;;;;;15.40;9.10;;;;;;;;;;779593;179;919076;-66
2023/11/19 06:42:12;;;;;;;15.33;8.83;;;;;;;;;;775282;179;920915;-62
2023/11/19 06:44:37;;;;;;;12.33;7.50;;;;;;;;;;776823;179;819248;-62
2023/11/19 06:47:03;;;;;;;9.87;5.90;;;;;;;;;;775490;178;913025;-65
2023/11/19 06:49:29;;;;;;;10.33;6.00;;;;;;;;;;779215;179;918948;-62
2023/11/19 06:51:55;;;;;;;10.57;6.23;;;;;;;;;;774896;179;918356;-65
2023/11/19 06:54:21;;;;;;;10.23;6.40;;;;;;;;;;774826;177;918649;-62
2023/11/19 06:56:47;;;;;;;9.50;5.00;;;;;;;;;;778974;179;917501;-65
2023/11/19 06:59:13;;;;;;;8.20;5.00;;;;;;;;;;774430;177;879408;-61
2023/11/19 07:01:38;;;;;;;8.30;5.17;;;;;;;;;;776552;179;919229;-64
2023/11/19 07:04:08;;;;;;;10.52;6.10;;;;;;;;;;773133;178;934790;-63
2023/11/19 07:06:31;;;;;;;9.40;5.30;;;;;;;;;;774058;179;932109;-64
2023/11/19 07:08:57;;;;;;;12.50;6.13;;;;;;;;;;779290;179;917934;-64
2023/11/19 07:11:22;;;;;;;9.20;5.50;;;;;;;;;;779609;179;909263;-63
2023/11/19 07:13:48;;;;;;;8.37;5.80;;;;;;;;;;781630;179;821398;-64
2023/11/19 07:16:14;;;;;;;10.67;6.37;;;;;;;;;;776345;179;910209;-64
2023/11/19 07:18:39;;;;;;;8.77;6.40;;;;;;;;;;775898;179;910172;-64
2023/11/19 07:21:06;;;;;;;9.07;5.30;;;;;;;;;;783710;179;926802;-64
2023/11/19 07:23:33;;;;;;;11.03;6.47;;;;;;;;;;778709;176;913482;-65
2023/11/19 07:25:57;;;;;;;10.90;6.20;;;;;;;;;;780946;178;916789;-64
2023/11/19 07:28:23;;;;;;;7.70;5.53;;;;;;;;;;783232;178;910820;-66
2023/11/19 07:30:49;;;;;;;7.27;4.83;;;;;;;;;;773081;178;886560;-65
2023/11/19 07:33:15;;;;;;;8.77;5.83;;;;;;;;;;768094;178;920559;-66
2023/11/19 07:35:42;;;;;;;7.90;5.10;;;;;;;;;;775864;178;916789;-65
2023/11/19 07:38:06;;;;;;;8.70;5.30;;;;;;;;;;781125;179;814527;-64
2023/11/19 07:40:32;;;;;;;8.63;5.90;;;;;;;;;;774262;178;917980;-65
2023/11/19 07:42:58;;;;;;;9.30;5.60;;;;;;;;;;777007;179;925720;-64
2023/11/19 07:45:24;;;;;;;7.40;4.47;;;;;;;;;;782745;179;858764;-64
2023/11/19 07:47:51;;;;;;;8.52;4.60;;;;;;;;;;778453;177;919618;-64
2023/11/19 07:50:16;;;;;;;7.50;4.73;;;;;;;;;;770927;179;915259;-65
2023/11/19 07:52:41;;;;;;;9.57;4.43;;;;;;;;;;782686;179;624978;-66
2023/11/19 07:55:08;;;;;;;6.67;5.10;;;;;;;;;;777771;179;629091;-67
2023/11/19 07:57:33;;;;;;;9.77;5.17;;;;;;;;;;780249;179;618952;-66
2023/11/19 08:00:01;;;;;;;9.57;5.57;;;;;;;;;;782863;179;626855;-68
2023/11/19 08:02:25;;;;;;;8.63;4.90;;;;;;;;;;777146;179;621558;-66
2023/11/19 08:04:51;;;;;;;8.30;5.50;;;;;;;;;;780907;178;629723;-66
2023/11/19 08:07:17;;;;;;;7.87;5.50;;;;;;;;;;780068;176;623786;-66
2023/11/19 08:09:43;;;;;;;8.00;5.13;;;;;;;;;;779528;179;624388;-67
2023/11/19 08:12:08;;;;;;;7.57;5.00;;;;;;;;;;779609;179;614593;-68
2023/11/19 08:14:34;;;;;;;7.70;5.00;;;;;;;;;;778016;179;618261;-68
2023/11/19 08:17:00;;;;;;;7.17;5.00;;;;;;;;;;783110;179;919225;-68
2023/11/19 08:19:26;;;;;;;8.60;5.70;;;;;;;;;;771212;179;917807;-68
2023/11/19 08:21:52;;;;;;;8.60;5.30;;;;;;;;;;773075;179;919324;-66
2023/11/19 08:24:18;;;;;;;10.30;5.80;;;;;;;;;;778754;179;868441;-66
2023/11/19 08:26:44;;;;;;;6.63;4.70;;;;;;;;;;775952;180;823208;-66
2023/11/19 08:29:10;;;;;;;7.23;4.90;;;;;;;;;;775239;179;919382;-66
2023/11/19 08:31:35;;;;;;;7.83;5.37;;;;;;;;;;774736;178;918277;-67
2023/11/19 08:34:01;;;;;;;8.10;5.23;;;;;;;;;;782096;178;812906;-66
2023/11/19 08:36:28;;;;;;;6.97;4.30;;;;;;;;;;777679;178;919157;-65
2023/11/19 08:38:53;;;;;;;8.70;4.73;;;;;;;;;;778175;178;915678;-67
2023/11/19 08:41:19;;;;;;;11.60;5.40;;;;;;;;;;785500;178;865063;-66
2023/11/19 08:43:45;;;;;;;6.63;4.10;;;;;;;;;;775681;178;915413;-66
2023/11/19 08:46:11;;;;;;;8.63;4.90;;;;;;;;;;782646;178;916814;-66
2023/11/19 08:48:36;;;;;;;8.67;4.97;;;;;;;;;;779173;178;918302;-67
2023/11/19 08:51:02;;;;;;;7.97;5.43;;;;;;;;;;772196;178;920680;-67
2023/11/19 08:53:28;;;;;;;9.13;5.17;;;;;;;;;;778570;179;915892;-67
2023/11/19 08:55:54;;;;;;;6.60;4.30;;;;;;;;;;771273;179;918225;-67
2023/11/19 08:58:20;;;;;;;7.83;4.60;;;;;;;;;;776727;178;814979;-66
2023/11/19 09:00:46;;;;;;;7.10;3.90;;;;;;;;;;779767;179;630263;-68
2023/11/19 09:03:12;;;;;;;7.03;4.90;;;;;;;;;;784335;177;628496;-70
2023/11/19 09:05:38;;;;;;;8.30;5.17;;;;;;;;;;780528;179;618986;-67
2023/11/19 09:08:04;;;;;;;7.80;4.37;;;;;;;;;;779981;178;713408;-67
2023/11/19 09:10:29;;;;;;;7.30;4.90;;;;;;;;;;779436;179;911114;-66
2023/11/19 09:12:55;;;;;;;6.27;4.73;;;;;;;;;;787097;178;626802;-68
2023/11/19 09:15:21;;;;;;;7.17;4.80;;;;;;;;;;781632;178;627495;-67
2023/11/19 09:17:47;;;;;;;7.77;5.30;;;;;;;;;;782169;179;626492;-67
2023/11/19 09:20:15;;;;;;;7.20;4.00;;;;;;;;;;774420;179;940434;-66
2023/11/19 09:22:39;;;;;;;7.27;4.57;;;;;;;;;;771477;180;761644;-67
2023/11/19 09:25:05;;;;;;;6.87;5.23;;;;;;;;;;780956;178;914864;-67
2023/11/19 09:27:31;;;;;;;8.43;4.67;;;;;;;;;;777457;179;918981;-67
2023/11/19 09:29:58;;;;;;;6.60;4.17;;;;;;;;;;771271;179;919139;-67
2023/11/19 09:32:23;;;;;;;7.03;4.67;;;;;;;;;;774594;179;918853;-67
2023/11/19 09:34:48;;;;;;;6.03;4.17;;;;;;;;;;770763;179;919915;-67
2023/11/19 09:37:14;;;;;;;9.90;5.20;;;;;;;;;;777309;179;915560;-66
2023/11/19 09:39:43;;;;;;;7.33;4.60;;;;;;;;;;778267;179;919588;-66
2023/11/19 09:42:06;;;;;;;7.85;4.30;;;;;;;;;;776809;179;817564;-66
2023/11/19 09:44:32;;;;;;;5.70;3.97;;;;;;;;;;784213;179;918268;-67
2023/11/19 09:46:58;;;;;;;6.90;4.60;;;;;;;;;;782547;178;815951;-66
2023/11/19 09:49:23;;;;;;;6.97;3.90;;;;;;;;;;780090;178;918011;-66
2023/11/19 09:51:49;;;;;;;5.13;3.60;;;;;;;;;;777070;178;919330;-66
2023/11/19 09:54:15;;;;;;;5.07;3.60;;;;;;;;;;781764;176;916334;-68
2023/11/19 09:56:41;;;;;;;8.43;4.33;;;;;;;;;;772163;179;917154;-65
2023/11/19 09:59:07;;;;;;;7.47;3.80;;;;;;;;;;774105;176;1020391;-66
2023/11/19 10:01:33;;;;;;;7.00;3.80;;;;;;;;;;784959;178;918919;-65
2023/11/19 10:03:59;;;;;;;9.93;4.47;;;;;;;;;;773984;178;918890;-66
2023/11/19 10:06:26;;;;;;;5.47;3.27;;;;;;;;;;775609;179;919397;-66
2023/11/19 10:08:50;;;;;;;5.03;3.73;;;;;;;;;;779748;179;917251;-67
2023/11/19 10:11:16;;;;;;;6.57;4.17;;;;;;;;;;773882;179;919272;-66
2023/11/19 10:13:42;;;;;;;5.53;4.00;;;;;;;;;;777971;179;919829;-65
2023/11/19 10:16:09;;;;;;;6.30;4.07;;;;;;;;;;779831;179;919739;-66
2023/11/19 10:18:37;;;;;;;6.63;3.87;;;;;;;;;;769973;180;918857;-66
2023/11/19 10:21:01;;;;;;;5.23;3.80;;;;;;;;;;778055;178;816113;-67
2023/11/19 10:23:27;;;;;;;7.47;4.32;;;;;;;;;;777081;175;918421;-65
2023/11/19 10:25:53;;;;;;;6.30;3.27;;;;;;;;;;782208;179;863352;-67
2023/11/19 10:28:19;;;;;;;5.10;3.30;;;;;;;;;;781170;178;815936;-65
2023/11/19 10:30:45;;;;;;;6.57;3.77;;;;;;;;;;778069;179;817070;-65
2023/11/19 10:33:14;;;;;;;5.63;3.60;;;;;;;;;;783816;178;919020;-67
2023/11/19 10:35:37;;;;;;;6.63;4.43;;;;;;;;;;774426;179;923106;-66
2023/11/19 10:38:16;;;;;;;5.78;3.65;;;;;;;;;;771492;177;918703;-65
2023/11/19 10:40:42;;;;;;;5.93;3.80;;;;;;;;;;775039;178;918747;-65
2023/11/19 10:43:07;;;;;;;6.70;4.67;;;;;;;;;;779033;179;1021939;-68
2023/11/19 10:45:33;;;;;;;6.20;3.83;;;;;;;;;;775542;179;919985;-65
2023/11/19 10:47:59;;;;;;;7.97;4.17;;;;;;;;;;777136;179;917888;-65
2023/11/19 10:50:25;;;;;;;8.43;4.03;;;;;;;;;;776605;179;918923;-68
2023/11/19 10:52:51;;;;;;;4.50;3.47;;;;;;;;;;775643;179;814317;-68
2023/11/19 10:55:17;;;;;;;7.00;3.90;;;;;;;;;;775869;179;916733;-66
2023/11/19 10:57:43;;;;;;;6.33;3.90;;;;;;;;;;778951;176;917993;-66
2023/11/19 11:00:12;;;;;;;7.10;4.30;;;;;;;;;;781583;178;918631;-66
2023/11/19 11:02:36;;;;;;;6.50;3.90;;;;;;;;;;776291;178;918040;-65
2023/11/19 11:05:03;;;;;;;5.60;3.87;;;;;;;;;;777938;178;816222;-66
2023/11/19 11:07:28;;;;;;;7.13;4.70;;;;;;;;;;780941;178;919291;-65
2023/11/19 11:09:53;;;;;;;6.13;4.20;;;;;;;;;;778634;178;817347;-65
2023/11/19 11:12:19;;;;;;;6.50;4.77;;;;;;;;;;777880;178;919607;-65
2023/11/19 11:14:45;;;;;;;5.77;3.47;;;;;;;;;;785334;178;918871;-65
2023/11/19 11:17:11;;;;;;;7.37;5.03;;;;;;;;;;766065;180;918975;-65
2023/11/19 11:19:37;;;;;;;8.03;4.23;;;;;;;;;;776140;179;919239;-63
2023/11/19 11:22:03;;;;;;;6.50;4.50;;;;;;;;;;773621;179;916808;-65
2023/11/19 11:24:49;;;;;;;6.20;3.40;;;;;;;;;;779389;179;917649;-65
2023/11/19 11:27:30;;;;;;;6.50;4.00;;;;;;;;;;772728;179;917991;-65
2023/11/19 11:30:02;;;;;;;6.70;4.00;;;;;;;;;;773974;179;801876;-65
2023/11/19 11:32:31;;;;;;;6.57;3.30;;;;;;;;;;768787;180;818726;-64
2023/11/19 11:35:16;;;;;;;6.07;3.63;;;;;;;;;;776558;178;1120288;-64
2023/11/19 11:37:47;;;;;;;6.60;3.97;;;;;;;;;;764555;179;884589;-65
2023/11/19 11:40:14;;;;;;;8.20;3.60;;;;;;;;;;778132;179;915446;-65
2023/11/19 11:42:39;;;;;;;4.63;2.80;;;;;;;;;;780336;179;921736;-68
2023/11/19 11:45:08;;;;;;;5.00;3.43;;;;;;;;;;778517;179;917404;-66
2023/11/19 11:47:40;;;;;;;5.77;3.47;;;;;;;;;;775528;175;915755;-66
2023/11/19 11:50:05;;;;;;;5.60;3.17;;;;;;;;;;777263;179;914366;-65
2023/11/19 11:52:31;;;;;;;7.13;4.13;;;;;;;;;;781827;176;909091;-66
2023/11/19 11:54:57;;;;;;;5.93;3.53;;;;;;;;;;774706;178;916010;-65
2023/11/19 11:57:23;;;;;;;5.13;3.30;;;;;;;;;;776584;179;919573;-65
2023/11/19 11:59:49;;;;;;;4.00;2.47;;;;;;;;;;783525;179;920569;-67
2023/11/19 12:02:14;;;;;;;5.13;3.13;;;;;;;;;;776491;179;904800;-64
2023/11/19 12:04:40;;;;;;;5.53;2.97;;;;;;;;;;773922;179;916652;-65
2023/11/19 12:07:06;;;;;;;4.43;2.70;;;;;;;;;;772689;179;919925;-64
2023/11/19 12:09:32;;;;;;;4.33;3.27;;;;;;;;;;772573;179;816836;-66
2023/11/19 12:12:18;;;;;;;7.67;4.37;;;;;;;;;;773983;178;918161;-65
2023/11/19 12:14:49;;;;;;;6.20;3.97;;;;;;;;;;778248;178;918623;-65
2023/11/19 12:17:21;;;;;;;6.40;3.80;;;;;;;;;;775629;177;918936;-63
2023/11/19 12:19:47;;;;;;;5.17;2.80;;;;;;;;;;778714;178;921140;-65
2023/11/19 12:22:13;;;;;;;6.60;3.63;;;;;;;;;;781452;176;833571;-65
2023/11/19 12:24:39;;;;;;;5.23;3.50;;;;;;;;;;781293;178;613461;-65
2023/11/19 12:27:05;;;;;;;6.83;4.77;;;;;;;;;;783702;178;637708;-65
2023/11/19 12:29:31;;;;;;;5.50;4.10;;;;;;;;;;787310;179;621763;-65
2023/11/19 12:32:02;;;;;;;5.60;3.63;;;;;;;;;;777747;180;628460;-64
2023/11/19 12:34:23;;;;;;;5.30;3.42;;;;;;;;;;778317;178;918144;-65
2023/11/19 12:36:49;;;;;;;8.60;4.37;;;;;;;;;;782061;179;916428;-66
2023/11/19 12:39:15;;;;;;;6.47;4.40;;;;;;;;;;775536;179;915559;-65
2023/11/19 12:41:50;;;;;;;8.87;5.27;;;;;;;;;;776590;179;915219;-64
2023/11/19 12:44:16;;;;;;;7.60;4.70;;;;;;;;;;772087;179;919414;-65
2023/11/19 12:46:41;;;;;;;7.30;5.00;;;;;;;;;;778406;179;884356;-65
2023/11/19 12:49:07;;;;;;;8.87;5.03;;;;;;;;;;774831;179;917520;-65
2023/11/19 12:51:33;;;;;;;9.70;4.87;;;;;;;;;;775606;179;917174;-65
2023/11/19 12:53:59;;;;;;;8.00;5.10;;;;;;;;;;779051;175;920601;-64
2023/11/19 12:56:26;;;;;;;6.00;4.40;;;;;;;;;;779060;179;816908;-65
2023/11/19 12:58:52;;;;;;;9.60;5.77;;;;;;;;;;776294;177;917308;-67
2023/11/19 13:01:18;;;;;;;7.23;5.10;;;;;;;;;;773391;179;921813;-65
2023/11/19 13:03:43;;;;;;;8.03;4.87;;;;;;;;;;779680;177;905626;-64
2023/11/19 13:06:12;;;;;;;8.97;5.50;;;;;;;;;;777925;179;932465;-65
2023/11/19 13:08:39;;;;;;;6.93;4.87;;;;;;;;;;778985;179;642458;-64
2023/11/19 13:11:06;;;;;;;5.13;3.90;;;;;;;;;;776520;179;1021986;-65
2023/11/19 13:13:31;;;;;;;6.45;3.87;;;;;;;;;;773591;179;918763;-65
2023/11/19 13:16:05;;;;;;;6.63;3.90;;;;;;;;;;775109;179;920786;-65
2023/11/19 13:18:28;;;;;;;7.10;4.70;;;;;;;;;;775955;178;915232;-64
2023/11/19 13:20:57;;;;;;;6.27;4.67;;;;;;;;;;780282;178;913980;-65
2023/11/19 13:23:20;;;;;;;7.07;4.87;;;;;;;;;;777039;178;918089;-65
2023/11/19 13:25:46;;;;;;;8.23;4.97;;;;;;;;;;778562;178;900324;-64
2023/11/19 13:28:12;;;;;;;6.70;4.27;;;;;;;;;;780477;178;912537;-66
2023/11/19 13:30:38;;;;;;;7.50;4.77;;;;;;;;;;778821;178;897069;-65
2023/11/19 13:33:04;;;;;;;6.90;4.23;;;;;;;;;;773784;176;911936;-65
2023/11/19 13:35:30;;;;;;;6.30;4.13;;;;;;;;;;779323;178;918508;-64
2023/11/19 13:37:56;;;;;;;5.53;3.97;;;;;;;;;;769802;177;918405;-64
2023/11/19 13:40:24;;;;;;;7.70;4.57;;;;;;;;;;779567;179;914783;-64
2023/11/19 13:42:48;;;;;;;7.23;4.03;;;;;;;;;;776269;179;918642;-66
2023/11/19 13:45:14;;;;;;;8.48;5.57;;;;;;;;;;780547;179;820893;-65
2023/11/19 13:47:41;;;;;;;8.40;5.30;;;;;;;;;;774832;179;925267;-64
2023/11/19 13:50:06;;;;;;;6.27;4.70;;;;;;;;;;777068;179;816259;-64
2023/11/19 13:52:33;;;;;;;6.00;4.40;;;;;;;;;;780145;177;902167;-64
2023/11/19 13:54:58;;;;;;;7.00;5.10;;;;;;;;;;776758;179;921273;-65
2023/11/19 13:57:24;;;;;;;7.03;5.17;;;;;;;;;;779664;179;624317;-64
2023/11/19 13:59:49;;;;;;;9.03;5.50;;;;;;;;;;777542;179;911799;-64
2023/11/19 14:02:15;;;;;;;8.07;4.90;;;;;;;;;;770098;177;714681;-65
2023/11/19 14:04:41;;;;;;;10.37;6.20;;;;;;;;;;779708;178;816543;-65
2023/11/19 14:07:07;;;;;;;10.60;5.47;;;;;;;;;;773885;175;919398;-65
2023/11/19 14:09:33;;;;;;;10.00;6.63;;;;;;;;;;777909;179;821568;-65